Time;durP1;ratioP1;P1;durP2;ratioP2;P2;SDS_P1;SDS_P2;PMS_P1;PMS_P2;Temp;Humidity;BMP_temperature;BMP_pressure;BME280_temperature;BME280_humidity;BME280_pressure;Samples;Min_cycle;Max_cycle;Signal;HPM_P1;HPM_P2
2021/06/29 00:00:28;;;;;;;1.33;0.88;;;;;;;;;;4897140;29;20024;-43
2021/06/29 00:03:01;;;;;;;1.70;0.77;;;;;;;;;;4897323;29;20394;-44
2021/06/29 00:05:27;;;;;;;0.85;0.85;;;;;;;;;;4897524;29;20043;-43
2021/06/29 00:07:53;;;;;;;1.08;1.05;;;;;;;;;;4900052;29;20367;-43
2021/06/29 00:10:18;;;;;;;1.27;0.80;;;;;;;;;;4901030;29;20044;-43
2021/06/29 00:12:44;;;;;;;2.97;0.88;;;;;;;;;;4901054;29;20067;-43
2021/06/29 00:15:09;;;;;;;2.83;0.57;;;;;;;;;;4901024;29;20037;-45
2021/06/29 00:17:35;;;;;;;0.98;0.88;;;;;;;;;;4901116;29;20032;-43
2021/06/29 00:20:01;;;;;;;0.82;0.60;;;;;;;;;;4900844;29;20032;-43
2021/06/29 00:22:26;;;;;;;0.68;0.60;;;;;;;;;;4899747;29;20600;-41
2021/06/29 00:24:51;;;;;;;1.77;0.90;;;;;;;;;;4901059;29;20092;-41
2021/06/29 00:27:17;;;;;;;8.55;1.13;;;;;;;;;;4900797;29;20465;-41
2021/06/29 00:29:42;;;;;;;3.70;1.08;;;;;;;;;;4900623;29;20128;-41
2021/06/29 00:32:08;;;;;;;3.72;1.20;;;;;;;;;;4900758;29;20476;-41
2021/06/29 00:34:33;;;;;;;3.90;1.00;;;;;;;;;;4899580;29;20040;-40
2021/06/29 00:36:59;;;;;;;1.10;0.75;;;;;;;;;;4899322;29;20025;-41
2021/06/29 00:39:24;;;;;;;2.10;1.15;;;;;;;;;;4900169;29;20049;-41
2021/06/29 00:41:50;;;;;;;1.60;0.73;;;;;;;;;;4900881;29;20043;-41
2021/06/29 00:44:19;;;;;;;4.00;0.70;;;;;;;;;;4900416;29;20080;-41
2021/06/29 00:46:45;;;;;;;1.35;0.73;;;;;;;;;;4900232;29;20071;-41
2021/06/29 00:49:10;;;;;;;0.73;0.60;;;;;;;;;;4900669;29;20060;-41
2021/06/29 00:51:35;;;;;;;0.80;0.80;;;;;;;;;;4900164;29;20092;-41
2021/06/29 00:54:01;;;;;;;0.70;0.70;;;;;;;;;;4900096;29;20075;-40
2021/06/29 00:56:26;;;;;;;0.80;0.80;;;;;;;;;;4900326;29;20031;-41
2021/06/29 00:58:52;;;;;;;1.17;0.93;;;;;;;;;;4900048;29;20024;-41
2021/06/29 01:01:17;;;;;;;5.32;0.82;;;;;;;;;;4900548;29;20032;-41
2021/06/29 01:03:43;;;;;;;1.50;0.82;;;;;;;;;;4898910;29;20075;-40
2021/06/29 01:06:09;;;;;;;1.48;1.00;;;;;;;;;;4900311;29;20024;-41
2021/06/29 01:08:35;;;;;;;1.80;1.00;;;;;;;;;;4899882;29;20535;-41
2021/06/29 01:11:00;;;;;;;0.77;0.73;;;;;;;;;;4899912;29;20040;-41
2021/06/29 01:13:33;;;;;;;0.82;0.82;;;;;;;;;;4899934;29;20025;-41
2021/06/29 01:15:59;;;;;;;1.00;0.75;;;;;;;;;;4899957;29;20116;-41
2021/06/29 01:18:26;;;;;;;1.85;1.02;;;;;;;;;;4899044;29;20623;-41
2021/06/29 01:20:51;;;;;;;0.68;0.60;;;;;;;;;;4899684;29;20506;-41
2021/06/29 01:23:20;;;;;;;2.30;0.80;;;;;;;;;;4899601;29;20021;-41
2021/06/29 01:25:46;;;;;;;0.90;0.68;;;;;;;;;;4900011;29;20194;-42
2021/06/29 01:28:30;;;;;;;4.18;0.90;;;;;;;;;;4900003;29;20096;-40
2021/06/29 01:31:07;;;;;;;1.35;0.75;;;;;;;;;;4899691;29;20040;-41
2021/06/29 01:33:32;;;;;;;1.92;1.00;;;;;;;;;;4899679;29;20350;-40
2021/06/29 01:35:58;;;;;;;0.95;0.80;;;;;;;;;;4899933;29;20037;-41
2021/06/29 01:38:24;;;;;;;2.50;0.80;;;;;;;;;;4899336;29;20120;-41
2021/06/29 01:40:49;;;;;;;2.53;0.75;;;;;;;;;;4899556;29;20043;-41
2021/06/29 01:43:18;;;;;;;2.20;0.57;;;;;;;;;;4898348;29;20169;-41
2021/06/29 01:45:47;;;;;;;1.02;0.93;;;;;;;;;;4899375;29;20027;-41
2021/06/29 01:48:19;;;;;;;0.70;0.70;;;;;;;;;;4899328;29;20025;-41
2021/06/29 01:50:44;;;;;;;4.03;0.90;;;;;;;;;;4899228;29;20047;-41
2021/06/29 01:53:10;;;;;;;1.38;0.88;;;;;;;;;;4897998;29;20025;-42
2021/06/29 01:55:35;;;;;;;2.45;1.60;;;;;;;;;;4899324;29;20080;-41
2021/06/29 01:58:02;;;;;;;1.27;0.77;;;;;;;;;;4899212;29;20040;-41
2021/06/29 02:00:28;;;;;;;0.63;0.60;;;;;;;;;;4899108;29;20036;-41
2021/06/29 02:02:53;;;;;;;3.05;0.90;;;;;;;;;;4898959;29;20021;-42
2021/06/29 02:05:19;;;;;;;3.15;1.13;;;;;;;;;;4899140;29;20373;-40
2021/06/29 02:07:44;;;;;;;5.00;0.90;;;;;;;;;;4899189;29;20492;-41
2021/06/29 02:10:10;;;;;;;5.40;0.98;;;;;;;;;;4898868;29;20503;-41
2021/06/29 02:12:36;;;;;;;0.93;0.80;;;;;;;;;;4898776;29;20017;-41
2021/06/29 02:15:02;;;;;;;4.13;1.20;;;;;;;;;;4898659;29;20036;-41
2021/06/29 02:17:27;;;;;;;0.82;0.60;;;;;;;;;;4898688;29;20025;-41
2021/06/29 02:19:52;;;;;;;1.23;0.93;;;;;;;;;;4898959;29;20033;-41
2021/06/29 02:22:18;;;;;;;2.58;0.93;;;;;;;;;;4898739;29;20024;-41
2021/06/29 02:24:43;;;;;;;3.80;0.82;;;;;;;;;;4899009;29;20032;-41
2021/06/29 02:27:08;;;;;;;2.13;1.15;;;;;;;;;;4898835;29;20028;-41
2021/06/29 02:29:34;;;;;;;1.10;0.75;;;;;;;;;;4898314;29;20032;-41
2021/06/29 02:32:00;;;;;;;1.33;0.80;;;;;;;;;;4897301;29;20028;-41
2021/06/29 02:34:25;;;;;;;1.33;0.90;;;;;;;;;;4898591;29;20036;-41
2021/06/29 02:36:50;;;;;;;0.85;0.82;;;;;;;;;;4898421;29;20030;-41
2021/06/29 02:39:16;;;;;;;0.70;0.70;;;;;;;;;;4898379;29;20056;-41
2021/06/29 02:41:41;;;;;;;1.13;1.02;;;;;;;;;;4898766;29;20032;-41
2021/06/29 02:44:08;;;;;;;1.00;0.90;;;;;;;;;;4898470;29;20576;-41
2021/06/29 02:46:35;;;;;;;3.53;0.80;;;;;;;;;;4898269;29;20021;-41
2021/06/29 02:49:00;;;;;;;2.08;0.90;;;;;;;;;;4898279;29;20036;-41
2021/06/29 02:51:26;;;;;;;0.80;0.70;;;;;;;;;;4898396;29;20029;-42
2021/06/29 02:53:51;;;;;;;3.75;0.82;;;;;;;;;;4898197;29;20444;-41
2021/06/29 02:59:00;;;;;;;4.85;0.82;;;;;;;;;;4898276;29;20032;-43
2021/06/29 03:01:26;;;;;;;4.95;0.88;;;;;;;;;;4898137;29;20024;-43
2021/06/29 03:03:51;;;;;;;4.05;0.80;;;;;;;;;;4898010;29;20032;-43
2021/06/29 03:06:16;;;;;;;0.70;0.70;;;;;;;;;;4898272;29;20476;-43
2021/06/29 03:08:42;;;;;;;0.80;0.80;;;;;;;;;;4897937;29;20032;-44
2021/06/29 03:11:07;;;;;;;3.55;1.40;;;;;;;;;;4897913;29;20032;-43
2021/06/29 03:13:32;;;;;;;1.20;0.70;;;;;;;;;;4897861;29;20452;-44
2021/06/29 03:15:58;;;;;;;0.75;0.70;;;;;;;;;;4898064;29;20036;-44
2021/06/29 03:18:23;;;;;;;2.42;0.75;;;;;;;;;;4897779;29;20040;-44
2021/06/29 03:20:49;;;;;;;1.85;0.75;;;;;;;;;;4897917;29;20034;-43
2021/06/29 03:23:15;;;;;;;1.27;1.00;;;;;;;;;;4897744;29;20033;-44
2021/06/29 03:25:40;;;;;;;0.90;0.73;;;;;;;;;;4897770;29;20035;-43
2021/06/29 03:28:06;;;;;;;1.67;0.70;;;;;;;;;;4897509;29;20029;-43
2021/06/29 03:30:31;;;;;;;0.80;0.80;;;;;;;;;;4897502;29;20055;-44
2021/06/29 03:32:56;;;;;;;1.55;0.93;;;;;;;;;;4896350;29;20025;-42
2021/06/29 03:35:22;;;;;;;4.93;1.10;;;;;;;;;;4896223;29;20447;-43
2021/06/29 03:37:47;;;;;;;1.25;0.90;;;;;;;;;;4897543;29;20479;-43
2021/06/29 03:40:13;;;;;;;1.75;1.13;;;;;;;;;;4897781;29;20447;-44
2021/06/29 03:42:38;;;;;;;1.52;1.00;;;;;;;;;;4896940;29;20040;-44
2021/06/29 03:45:05;;;;;;;0.88;0.65;;;;;;;;;;4897427;29;20371;-44
2021/06/29 03:47:30;;;;;;;0.88;0.75;;;;;;;;;;4897411;29;20552;-43
2021/06/29 03:49:55;;;;;;;1.10;0.88;;;;;;;;;;4897130;29;20171;-43
2021/06/29 03:52:21;;;;;;;1.27;0.95;;;;;;;;;;4896412;29;20387;-43
2021/06/29 03:54:47;;;;;;;1.77;0.70;;;;;;;;;;4897227;29;20076;-44
2021/06/29 03:57:12;;;;;;;2.38;0.80;;;;;;;;;;4897248;29;20040;-43
2021/06/29 03:59:37;;;;;;;1.02;0.73;;;;;;;;;;4897212;29;20029;-43
2021/06/29 04:02:03;;;;;;;1.10;1.00;;;;;;;;;;4895937;29;20033;-43
2021/06/29 04:04:28;;;;;;;1.00;0.77;;;;;;;;;;4897483;29;20032;-43
2021/06/29 04:06:53;;;;;;;3.38;0.98;;;;;;;;;;4895911;29;20032;-43
2021/06/29 04:09:19;;;;;;;2.58;0.90;;;;;;;;;;4897122;29;20477;-43
2021/06/29 04:11:44;;;;;;;2.92;0.98;;;;;;;;;;4896982;29;20045;-43
2021/06/29 04:14:10;;;;;;;0.95;0.70;;;;;;;;;;4897404;29;20115;-42
2021/06/29 04:16:35;;;;;;;0.77;0.70;;;;;;;;;;4897386;29;20115;-43
2021/06/29 04:19:00;;;;;;;0.90;0.80;;;;;;;;;;4896996;29;20550;-44
2021/06/29 04:21:26;;;;;;;3.17;0.93;;;;;;;;;;4897326;29;20036;-43
2021/06/29 04:23:51;;;;;;;0.60;0.60;;;;;;;;;;4896959;29;20021;-43
2021/06/29 04:26:17;;;;;;;3.90;1.02;;;;;;;;;;4897264;29;20036;-43
2021/06/29 04:28:43;;;;;;;2.20;0.68;;;;;;;;;;4896986;29;20052;-41
2021/06/29 04:31:08;;;;;;;5.15;0.88;;;;;;;;;;4896886;29;20040;-41
2021/06/29 04:33:33;;;;;;;1.10;1.00;;;;;;;;;;4897316;29;20024;-41
2021/06/29 04:35:59;;;;;;;1.08;0.82;;;;;;;;;;4896986;29;20391;-41
2021/06/29 04:38:24;;;;;;;2.28;1.00;;;;;;;;;;4896606;29;20085;-41
2021/06/29 04:40:50;;;;;;;1.77;0.95;;;;;;;;;;4895715;29;20041;-41
2021/06/29 04:43:15;;;;;;;1.08;0.80;;;;;;;;;;4896926;29;20124;-41
2021/06/29 04:45:40;;;;;;;1.27;0.88;;;;;;;;;;4896800;29;20046;-40
2021/06/29 04:48:06;;;;;;;1.75;1.00;;;;;;;;;;4896795;29;20031;-41
2021/06/29 04:50:32;;;;;;;1.17;1.02;;;;;;;;;;4896957;29;20044;-41
2021/06/29 04:52:57;;;;;;;1.58;1.00;;;;;;;;;;4897175;29;20047;-41
2021/06/29 04:55:22;;;;;;;2.70;1.05;;;;;;;;;;4900626;29;20043;-41
2021/06/29 04:57:48;;;;;;;2.42;1.23;;;;;;;;;;4900276;29;20164;-40
2021/06/29 05:00:15;;;;;;;0.93;0.80;;;;;;;;;;4900499;29;20036;-40
2021/06/29 05:02:41;;;;;;;1.92;1.20;;;;;;;;;;4900294;29;20099;-40
2021/06/29 05:05:07;;;;;;;0.93;0.90;;;;;;;;;;4900229;29;20107;-40
2021/06/29 05:07:32;;;;;;;4.90;0.85;;;;;;;;;;4900163;29;20025;-41
2021/06/29 05:09:58;;;;;;;2.78;0.80;;;;;;;;;;4900164;29;20056;-41
2021/06/29 05:12:23;;;;;;;1.02;0.80;;;;;;;;;;4900454;29;20456;-41
2021/06/29 05:14:48;;;;;;;2.08;1.08;;;;;;;;;;4899886;29;20067;-41
2021/06/29 05:17:14;;;;;;;1.05;0.95;;;;;;;;;;4900270;29;20100;-40
2021/06/29 05:19:39;;;;;;;1.30;1.17;;;;;;;;;;4900272;29;20040;-40
2021/06/29 05:22:05;;;;;;;1.67;0.73;;;;;;;;;;4899752;29;20023;-41
2021/06/29 05:24:31;;;;;;;2.30;1.00;;;;;;;;;;4900217;29;20040;-41
2021/06/29 05:26:56;;;;;;;1.55;1.15;;;;;;;;;;4899708;29;20020;-41
2021/06/29 05:29:22;;;;;;;1.08;0.82;;;;;;;;;;4899695;29;20101;-42
2021/06/29 05:31:47;;;;;;;1.15;0.85;;;;;;;;;;4898747;29;20032;-42
2021/06/29 05:34:13;;;;;;;0.82;0.68;;;;;;;;;;4899665;29;20043;-41
2021/06/29 05:36:38;;;;;;;2.05;0.77;;;;;;;;;;4899900;29;20084;-42
2021/06/29 05:39:04;;;;;;;1.08;0.98;;;;;;;;;;4898086;29;20571;-42
2021/06/29 05:41:30;;;;;;;0.88;0.80;;;;;;;;;;4899926;29;20028;-43
2021/06/29 05:43:55;;;;;;;1.55;0.85;;;;;;;;;;4899447;29;20373;-42
2021/06/29 05:46:21;;;;;;;1.23;0.98;;;;;;;;;;4899472;29;20096;-42
2021/06/29 05:48:48;;;;;;;0.80;0.80;;;;;;;;;;4899342;29;20029;-41
2021/06/29 05:51:14;;;;;;;0.95;0.80;;;;;;;;;;4899575;29;20067;-41
2021/06/29 05:53:39;;;;;;;3.97;1.15;;;;;;;;;;4899618;29;20072;-42
2021/06/29 05:56:06;;;;;;;1.00;0.57;;;;;;;;;;4898373;29;20044;-41
2021/06/29 05:58:32;;;;;;;1.10;1.00;;;;;;;;;;4899187;29;20472;-42
2021/06/29 06:00:58;;;;;;;0.80;0.80;;;;;;;;;;4899502;29;20104;-42
2021/06/29 06:03:24;;;;;;;3.85;0.95;;;;;;;;;;4898901;29;20032;-42
2021/06/29 06:05:50;;;;;;;1.08;0.98;;;;;;;;;;4898570;29;20025;-41
2021/06/29 06:08:15;;;;;;;1.75;0.88;;;;;;;;;;4897911;29;20056;-41
2021/06/29 06:10:40;;;;;;;2.20;1.00;;;;;;;;;;4899057;29;20041;-42
2021/06/29 06:13:06;;;;;;;0.80;0.60;;;;;;;;;;4898977;29;20033;-42
2021/06/29 06:15:31;;;;;;;2.45;0.95;;;;;;;;;;4899025;29;20032;-41
2021/06/29 06:17:57;;;;;;;1.02;0.85;;;;;;;;;;4898797;29;20032;-42
2021/06/29 06:20:23;;;;;;;0.85;0.85;;;;;;;;;;4898825;29;20032;-42
2021/06/29 06:22:49;;;;;;;0.80;0.80;;;;;;;;;;4896767;29;20048;-41
2021/06/29 06:25:14;;;;;;;0.88;0.80;;;;;;;;;;4898342;29;20025;-45
2021/06/29 06:27:40;;;;;;;4.38;1.10;;;;;;;;;;4881724;29;20141;-41
2021/06/29 06:30:06;;;;;;;0.80;0.80;;;;;;;;;;4898535;29;20032;-41
2021/06/29 06:32:32;;;;;;;1.10;1.00;;;;;;;;;;4896935;29;20060;-41
2021/06/29 06:34:57;;;;;;;1.25;0.90;;;;;;;;;;4898207;29;20533;-42
2021/06/29 06:37:23;;;;;;;3.58;1.00;;;;;;;;;;4898271;29;20384;-41
2021/06/29 06:39:48;;;;;;;1.73;1.00;;;;;;;;;;4897919;29;20049;-41
2021/06/29 06:42:14;;;;;;;1.20;1.10;;;;;;;;;;4898401;29;20033;-41
2021/06/29 06:44:40;;;;;;;2.40;0.82;;;;;;;;;;4898481;29;20527;-41
2021/06/29 06:47:05;;;;;;;2.08;1.20;;;;;;;;;;4898240;29;20044;-41
2021/06/29 06:49:31;;;;;;;1.10;0.90;;;;;;;;;;4898241;29;20175;-42
2021/06/29 06:51:56;;;;;;;1.77;1.00;;;;;;;;;;4898325;29;20033;-41
2021/06/29 06:54:21;;;;;;;1.20;0.80;;;;;;;;;;4898210;29;20064;-41
2021/06/29 06:56:47;;;;;;;1.17;0.98;;;;;;;;;;4897165;29;20039;-41
2021/06/29 06:59:12;;;;;;;1.23;1.13;;;;;;;;;;4898179;29;20032;-41
2021/06/29 07:01:41;;;;;;;0.80;0.80;;;;;;;;;;4898341;29;20040;-41
2021/06/29 07:04:06;;;;;;;0.85;0.73;;;;;;;;;;4898085;29;20463;-42
2021/06/29 07:06:32;;;;;;;1.85;0.93;;;;;;;;;;4898094;29;20036;-42
2021/06/29 07:08:57;;;;;;;2.00;0.88;;;;;;;;;;4898071;29;20021;-41
2021/06/29 07:11:23;;;;;;;0.93;0.80;;;;;;;;;;4898229;29;20483;-41
2021/06/29 07:13:48;;;;;;;2.67;0.90;;;;;;;;;;4897851;29;20025;-43
2021/06/29 07:16:14;;;;;;;3.17;1.10;;;;;;;;;;4897047;29;20039;-42
2021/06/29 07:18:39;;;;;;;1.73;0.95;;;;;;;;;;4898199;29;20100;-42
2021/06/29 07:21:04;;;;;;;4.72;0.98;;;;;;;;;;4897953;29;20087;-41
2021/06/29 07:23:30;;;;;;;1.60;1.40;;;;;;;;;;4897786;29;20031;-41
2021/06/29 07:25:55;;;;;;;0.95;0.88;;;;;;;;;;4897643;29;20039;-42
2021/06/29 07:28:20;;;;;;;7.72;0.80;;;;;;;;;;4897623;29;20427;-41
2021/06/29 07:30:46;;;;;;;3.72;0.80;;;;;;;;;;4897768;29;20401;-42
2021/06/29 07:33:12;;;;;;;0.80;0.80;;;;;;;;;;4897648;29;20095;-41
2021/06/29 07:35:37;;;;;;;0.90;0.90;;;;;;;;;;4897554;29;20068;-41
2021/06/29 07:38:03;;;;;;;1.05;1.00;;;;;;;;;;4897239;29;20051;-42
2021/06/29 07:40:31;;;;;;;3.03;1.08;;;;;;;;;;4897513;29;20056;-42
2021/06/29 07:42:57;;;;;;;4.38;1.10;;;;;;;;;;4897357;29;20025;-41
2021/06/29 07:45:25;;;;;;;6.28;1.05;;;;;;;;;;4896157;29;20048;-41
2021/06/29 07:47:51;;;;;;;1.60;0.93;;;;;;;;;;4897632;29;20085;-42
2021/06/29 07:50:16;;;;;;;0.93;0.85;;;;;;;;;;4897507;29;20428;-42
2021/06/29 07:52:41;;;;;;;2.75;1.02;;;;;;;;;;4897360;29;20142;-42
2021/06/29 07:55:07;;;;;;;1.75;1.15;;;;;;;;;;4897299;29;20173;-41
2021/06/29 07:57:33;;;;;;;2.75;0.85;;;;;;;;;;4897482;29;20079;-42
2021/06/29 07:59:58;;;;;;;4.65;0.93;;;;;;;;;;4897158;29;20025;-42
2021/06/29 08:02:24;;;;;;;1.67;0.82;;;;;;;;;;4897225;29;20060;-41
2021/06/29 08:04:49;;;;;;;1.90;0.90;;;;;;;;;;4897083;29;20032;-42
2021/06/29 08:07:14;;;;;;;0.93;0.82;;;;;;;;;;4897520;29;20516;-41
2021/06/29 08:09:40;;;;;;;2.03;1.15;;;;;;;;;;4897127;29;20029;-42
2021/06/29 08:12:06;;;;;;;2.42;1.05;;;;;;;;;;4897060;29;20376;-42
2021/06/29 08:14:32;;;;;;;5.53;1.25;;;;;;;;;;4897205;29;20056;-42
2021/06/29 08:16:58;;;;;;;1.27;0.75;;;;;;;;;;4897102;29;20063;-41
2021/06/29 08:19:23;;;;;;;1.42;0.80;;;;;;;;;;4897362;29;20096;-42
2021/06/29 08:21:48;;;;;;;1.83;1.35;;;;;;;;;;4897098;29;20097;-42
2021/06/29 08:24:14;;;;;;;2.78;1.00;;;;;;;;;;4897303;29;20369;-42
2021/06/29 08:26:39;;;;;;;7.03;1.05;;;;;;;;;;4897256;29;20436;-42
2021/06/29 08:29:04;;;;;;;1.95;1.02;;;;;;;;;;4900378;29;20040;-42
2021/06/29 08:31:30;;;;;;;1.50;0.90;;;;;;;;;;4899636;29;20436;-41
2021/06/29 08:33:55;;;;;;;1.63;1.42;;;;;;;;;;4900968;29;20026;-41
2021/06/29 08:36:21;;;;;;;3.17;0.90;;;;;;;;;;4899541;29;20467;-42
2021/06/29 08:38:50;;;;;;;1.30;0.80;;;;;;;;;;4900574;29;20053;-42
2021/06/29 08:41:16;;;;;;;1.10;1.00;;;;;;;;;;4900575;29;20546;-42
2021/06/29 08:43:41;;;;;;;1.00;0.90;;;;;;;;;;4900679;29;20131;-42
2021/06/29 08:46:07;;;;;;;0.85;0.85;;;;;;;;;;4900576;29;20032;-41
2021/06/29 08:48:33;;;;;;;4.47;1.02;;;;;;;;;;4900403;29;20035;-41
2021/06/29 08:51:00;;;;;;;1.38;1.00;;;;;;;;;;4900439;29;20037;-41
2021/06/29 08:53:25;;;;;;;1.02;0.93;;;;;;;;;;4900702;29;20032;-41
2021/06/29 08:55:51;;;;;;;0.90;0.90;;;;;;;;;;4900301;29;20078;-41
2021/06/29 08:58:20;;;;;;;2.05;1.00;;;;;;;;;;4900354;29;20032;-42
2021/06/29 09:00:46;;;;;;;1.05;0.98;;;;;;;;;;4900554;29;20035;-42
2021/06/29 09:03:12;;;;;;;1.45;0.85;;;;;;;;;;4900543;29;20084;-41
2021/06/29 09:05:42;;;;;;;1.38;1.00;;;;;;;;;;4900333;29;20416;-42
2021/06/29 09:08:08;;;;;;;2.63;1.10;;;;;;;;;;4900319;29;20451;-41
2021/06/29 09:10:37;;;;;;;2.35;0.90;;;;;;;;;;4900396;29;20123;-42
2021/06/29 09:13:05;;;;;;;1.55;0.95;;;;;;;;;;4900066;29;20029;-42
2021/06/29 09:15:36;;;;;;;1.27;1.10;;;;;;;;;;4899961;29;20105;-42
2021/06/29 09:18:05;;;;;;;4.15;1.05;;;;;;;;;;4899904;29;20037;-42
2021/06/29 09:20:31;;;;;;;1.40;0.82;;;;;;;;;;4900107;29;20061;-43
2021/06/29 09:22:57;;;;;;;4.05;1.10;;;;;;;;;;4900071;29;20048;-41
2021/06/29 09:25:27;;;;;;;1.65;1.10;;;;;;;;;;4899942;29;20112;-41
2021/06/29 09:27:53;;;;;;;1.27;0.93;;;;;;;;;;4899753;29;20043;-41
2021/06/29 09:30:27;;;;;;;2.45;1.35;;;;;;;;;;4899630;29;20039;-42
2021/06/29 09:32:55;;;;;;;2.10;1.05;;;;;;;;;;4899723;29;20029;-44
2021/06/29 09:35:20;;;;;;;4.60;1.23;;;;;;;;;;4899745;29;20108;-42
2021/06/29 09:37:46;;;;;;;1.30;1.02;;;;;;;;;;4899316;29;20479;-42
2021/06/29 09:40:12;;;;;;;1.20;1.10;;;;;;;;;;4897314;29;20047;-42
2021/06/29 09:42:38;;;;;;;1.95;1.20;;;;;;;;;;4899295;29;20491;-42
2021/06/29 09:45:04;;;;;;;2.38;0.98;;;;;;;;;;4898294;29;20024;-41
2021/06/29 09:47:31;;;;;;;2.55;1.58;;;;;;;;;;4899508;29;20040;-42
2021/06/29 09:50:02;;;;;;;4.13;1.15;;;;;;;;;;4899422;29;20076;-42
2021/06/29 09:52:32;;;;;;;4.43;1.05;;;;;;;;;;4899410;29;20037;-42
2021/06/29 09:54:58;;;;;;;1.63;1.38;;;;;;;;;;4899398;29;20024;-42
2021/06/29 09:57:24;;;;;;;1.13;1.08;;;;;;;;;;4899372;29;20028;-42
2021/06/29 09:59:49;;;;;;;4.78;1.30;;;;;;;;;;4899417;29;20081;-43
2021/06/29 10:02:28;;;;;;;1.63;1.15;;;;;;;;;;4899262;29;20033;-42
2021/06/29 10:05:12;;;;;;;1.55;1.20;;;;;;;;;;4899060;29;20084;-42
2021/06/29 10:07:38;;;;;;;1.10;1.00;;;;;;;;;;4899159;29;20036;-42
2021/06/29 10:10:13;;;;;;;2.55;0.93;;;;;;;;;;4899002;29;20039;-42
2021/06/29 10:12:39;;;;;;;1.50;1.40;;;;;;;;;;4899346;29;20052;-41
2021/06/29 10:15:04;;;;;;;4.68;1.65;;;;;;;;;;4899186;29;20123;-42
2021/06/29 10:17:30;;;;;;;4.10;1.50;;;;;;;;;;4898072;29;20024;-42
2021/06/29 10:20:23;;;;;;;2.58;1.40;;;;;;;;;;4899100;29;20540;-42
2021/06/29 10:22:50;;;;;;;;;;;;;;;;;;4899301;29;20028;-42
2021/06/29 10:25:16;;;;;;;2.00;1.20;;;;;;;;;;4899158;29;19977;-42
2021/06/29 10:27:43;;;;;;;3.53;1.50;;;;;;;;;;4898726;29;20041;-42
2021/06/29 10:30:08;;;;;;;1.73;1.40;;;;;;;;;;4898875;29;20084;-42
2021/06/29 10:32:34;;;;;;;3.33;1.95;;;;;;;;;;4898727;29;20037;-41
2021/06/29 10:34:59;;;;;;;1.77;1.17;;;;;;;;;;4898615;29;20024;-41
2021/06/29 10:37:24;;;;;;;5.45;1.65;;;;;;;;;;4897356;29;20029;-41
2021/06/29 10:39:50;;;;;;;1.70;1.50;;;;;;;;;;4898358;29;20049;-41
2021/06/29 10:42:18;;;;;;;2.25;1.40;;;;;;;;;;4898382;29;20025;-41
2021/06/29 10:44:45;;;;;;;1.30;1.20;;;;;;;;;;4898484;29;20039;-41
2021/06/29 10:47:29;;;;;;;3.40;1.38;;;;;;;;;;4897199;29;20033;-42
2021/06/29 10:49:55;;;;;;;5.38;1.50;;;;;;;;;;4898247;29;20032;-41
2021/06/29 10:52:23;;;;;;;2.25;1.27;;;;;;;;;;4898474;29;20103;-41
2021/06/29 10:55:18;;;;;;;10.20;1.58;;;;;;;;;;4898192;29;20080;-41
2021/06/29 10:57:48;;;;;;;1.92;1.38;;;;;;;;;;4893411;29;20076;-41
2021/06/29 11:00:16;;;;;;;5.07;1.90;;;;;;;;;;4898480;29;20040;-41
2021/06/29 11:02:42;;;;;;;1.95;1.30;;;;;;;;;;4898135;29;20029;-41
2021/06/29 11:05:10;;;;;;;6.13;2.08;;;;;;;;;;4898031;29;20083;-42
2021/06/29 11:07:41;;;;;;;3.17;1.65;;;;;;;;;;4896745;29;20361;-42
2021/06/29 11:10:08;;;;;;;1.88;1.50;;;;;;;;;;4898075;29;20112;-41
2021/06/29 11:12:34;;;;;;;4.50;1.85;;;;;;;;;;4898004;29;20029;-42
2021/06/29 11:15:00;;;;;;;2.85;1.70;;;;;;;;;;4898094;29;20380;-42
2021/06/29 11:18:00;;;;;;;2.83;1.40;;;;;;;;;;4897760;29;20036;-41
2021/06/29 11:20:36;;;;;;;8.90;2.28;;;;;;;;;;4886750;29;20055;-42
2021/06/29 11:23:03;;;;;;;1.85;1.48;;;;;;;;;;4897734;29;20064;-41
2021/06/29 11:25:35;;;;;;;3.95;1.15;;;;;;;;;;4897776;29;20031;-42
2021/06/29 11:28:16;;;;;;;4.30;2.10;;;;;;;;;;4897839;29;20112;-41
2021/06/29 11:30:47;;;;;;;2.63;1.83;;;;;;;;;;4897656;29;20048;-41
2021/06/29 11:33:31;;;;;;;6.20;1.50;;;;;;;;;;4897797;29;20044;-41
2021/06/29 11:35:57;;;;;;;4.15;1.60;;;;;;;;;;4897823;29;20032;-41
2021/06/29 11:38:34;;;;;;;2.65;1.50;;;;;;;;;;4897225;29;20056;-41
2021/06/29 11:41:17;;;;;;;9.88;2.53;;;;;;;;;;4897565;29;20036;-41
2021/06/29 11:43:43;;;;;;;5.60;1.52;;;;;;;;;;4897538;29;20040;-42
2021/06/29 11:46:08;;;;;;;4.53;1.75;;;;;;;;;;4897632;29;20494;-41
2021/06/29 11:48:38;;;;;;;4.68;1.42;;;;;;;;;;4897363;29;20107;-42
2021/06/29 11:51:04;;;;;;;10.30;1.77;;;;;;;;;;4897503;29;20044;-41
2021/06/29 11:53:29;;;;;;;6.13;1.52;;;;;;;;;;4897570;29;20394;-41
2021/06/29 11:55:54;;;;;;;8.88;1.70;;;;;;;;;;4896114;29;20092;-41
2021/06/29 11:58:20;;;;;;;7.53;1.80;;;;;;;;;;4897298;29;20040;-41
2021/06/29 12:00:45;;;;;;;6.20;1.33;;;;;;;;;;4897134;29;20029;-41
2021/06/29 12:03:13;;;;;;;10.38;2.40;;;;;;;;;;4896823;29;20476;-41
2021/06/29 12:05:39;;;;;;;10.05;1.98;;;;;;;;;;4897546;29;20110;-41
2021/06/29 12:08:06;;;;;;;5.95;1.60;;;;;;;;;;4897317;29;20040;-41
2021/06/29 12:10:36;;;;;;;3.85;1.73;;;;;;;;;;4897226;29;20044;-41
2021/06/29 12:13:01;;;;;;;5.90;1.35;;;;;;;;;;4897024;29;20114;-41
2021/06/29 12:15:40;;;;;;;10.63;2.03;;;;;;;;;;4895950;29;20028;-41
2021/06/29 12:18:07;;;;;;;4.13;1.90;;;;;;;;;;4896984;29;20032;-41
2021/06/29 12:20:32;;;;;;;6.97;1.35;;;;;;;;;;4897104;29;20036;-41
2021/06/29 12:22:58;;;;;;;4.43;1.70;;;;;;;;;;4896968;29;20041;-42
2021/06/29 12:25:28;;;;;;;8.57;1.65;;;;;;;;;;4897384;29;20024;-41
2021/06/29 12:27:53;;;;;;;10.38;2.13;;;;;;;;;;4896812;29;20040;-41
2021/06/29 12:30:19;;;;;;;5.40;1.83;;;;;;;;;;4896912;29;20036;-41
2021/06/29 12:32:44;;;;;;;7.55;1.95;;;;;;;;;;4895836;29;20035;-43
2021/06/29 12:35:10;;;;;;;5.03;1.63;;;;;;;;;;4896844;29;20033;-41
2021/06/29 12:37:51;;;;;;;5.38;1.20;;;;;;;;;;4896759;29;20025;-41
2021/06/29 12:40:16;;;;;;;5.55;1.15;;;;;;;;;;4896970;29;20033;-41
2021/06/29 12:42:42;;;;;;;4.70;2.03;;;;;;;;;;4896921;29;20387;-41
2021/06/29 12:45:08;;;;;;;6.78;1.25;;;;;;;;;;4897176;29;20040;-41
2021/06/29 12:47:34;;;;;;;6.07;2.28;;;;;;;;;;4895936;29;20029;-41
2021/06/29 12:50:00;;;;;;;19.23;2.65;;;;;;;;;;4897021;29;20123;-41
2021/06/29 12:52:25;;;;;;;7.97;1.55;;;;;;;;;;4896842;29;20028;-41
2021/06/29 12:55:01;;;;;;;6.55;1.50;;;;;;;;;;4897012;29;20032;-41
2021/06/29 12:57:26;;;;;;;6.40;0.93;;;;;;;;;;4896961;29;20037;-41
2021/06/29 12:59:52;;;;;;;2.55;1.55;;;;;;;;;;4896720;29;20104;-42
2021/06/29 13:02:21;;;;;;;6.85;2.33;;;;;;;;;;4897033;29;20115;-41
2021/06/29 13:04:49;;;;;;;6.88;1.52;;;;;;;;;;4896923;29;20361;-41
2021/06/29 13:07:15;;;;;;;5.72;1.30;;;;;;;;;;4896660;29;20040;-41
2021/06/29 13:09:42;;;;;;;8.68;2.30;;;;;;;;;;4895830;29;20376;-41
2021/06/29 13:12:10;;;;;;;5.30;1.75;;;;;;;;;;4896509;29;20044;-41
2021/06/29 13:14:37;;;;;;;2.97;1.92;;;;;;;;;;4897493;29;20044;-42
2021/06/29 13:17:04;;;;;;;7.35;2.13;;;;;;;;;;4899958;29;20036;-41
2021/06/29 13:19:30;;;;;;;8.15;2.85;;;;;;;;;;4900299;29;20124;-41
2021/06/29 13:21:57;;;;;;;8.82;2.95;;;;;;;;;;4900240;29;20056;-41
2021/06/29 13:24:23;;;;;;;12.55;2.67;;;;;;;;;;4899969;29;20027;-41
2021/06/29 13:27:05;;;;;;;8.13;2.42;;;;;;;;;;4899955;29;20111;-41
2021/06/29 13:29:33;;;;;;;10.27;3.10;;;;;;;;;;4899834;29;20035;-41
2021/06/29 13:31:59;;;;;;;12.90;1.33;;;;;;;;;;4898453;29;20041;-41
2021/06/29 13:34:26;;;;;;;8.82;2.20;;;;;;;;;;4898650;29;20036;-42
2021/06/29 13:36:51;;;;;;;4.63;1.40;;;;;;;;;;4899930;29;20444;-41
2021/06/29 13:39:28;;;;;;;8.30;1.55;;;;;;;;;;4899478;29;20049;-41
2021/06/29 13:41:53;;;;;;;14.00;2.33;;;;;;;;;;4899609;29;20029;-41
2021/06/29 13:44:20;;;;;;;5.15;1.63;;;;;;;;;;4899852;29;20060;-41
2021/06/29 13:46:46;;;;;;;4.88;1.80;;;;;;;;;;4899525;29;20033;-41
2021/06/29 13:49:17;;;;;;;14.68;2.42;;;;;;;;;;4899441;29;20403;-42
2021/06/29 13:51:43;;;;;;;2.22;1.38;;;;;;;;;;4898155;29;20131;-41
2021/06/29 13:54:14;;;;;;;9.77;1.27;;;;;;;;;;4899333;29;20095;-42
2021/06/29 13:56:40;;;;;;;12.30;2.13;;;;;;;;;;4899349;29;20503;-42
2021/06/29 13:59:06;;;;;;;2.08;0.50;;;;;;;;;;4899534;29;20021;-41
2021/06/29 14:01:34;;;;;;;12.77;2.15;;;;;;;;;;4899284;29;20048;-41
2021/06/29 14:04:06;;;;;;;2.50;1.17;;;;;;;;;;4899096;29;20036;-42
2021/06/29 14:06:32;;;;;;;8.27;1.50;;;;;;;;;;4899141;29;20357;-41
2021/06/29 14:09:07;;;;;;;7.88;1.88;;;;;;;;;;4899237;29;20079;-41
2021/06/29 14:11:37;;;;;;;9.23;1.73;;;;;;;;;;4899131;29;20096;-42
2021/06/29 14:14:02;;;;;;;7.97;2.33;;;;;;;;;;4898909;29;20044;-41
2021/06/29 14:16:28;;;;;;;2.58;0.93;;;;;;;;;;4897806;29;20032;-41
2021/06/29 14:18:54;;;;;;;5.70;1.90;;;;;;;;;;4898875;29;20021;-41
2021/06/29 14:21:38;;;;;;;3.13;0.93;;;;;;;;;;4898888;29;20036;-41
2021/06/29 14:24:04;;;;;;;12.35;2.25;;;;;;;;;;4897620;29;20484;-41
2021/06/29 14:26:30;;;;;;;6.32;1.60;;;;;;;;;;4898495;29;20024;-49
2021/06/29 14:28:57;;;;;;;11.35;1.90;;;;;;;;;;4898935;29;20391;-41
2021/06/29 14:31:23;;;;;;;9.13;2.33;;;;;;;;;;4898790;29;20059;-41
2021/06/29 14:33:48;;;;;;;15.40;2.70;;;;;;;;;;4899078;29;20483;-44
2021/06/29 14:36:16;;;;;;;9.82;2.33;;;;;;;;;;4898523;29;20029;-42
2021/06/29 14:38:42;;;;;;;5.55;2.58;;;;;;;;;;4897151;29;20508;-43
2021/06/29 14:41:08;;;;;;;5.57;1.70;;;;;;;;;;4898601;29;20035;-42
2021/06/29 14:43:35;;;;;;;5.15;1.55;;;;;;;;;;4898774;29;20025;-42